createdAt,value
2022-08-07T00:00:39.915Z,101107.81
2022-08-07T00:03:08.700Z,101111.81
2022-08-07T00:05:38.895Z,101108.59
2022-08-07T00:08:08.035Z,101106.56
2022-08-07T00:10:48.224Z,101107.06
2022-08-07T00:13:25.827Z,101118.47
2022-08-07T00:15:55.135Z,101112.09
2022-08-07T00:18:25.092Z,101110.38
2022-08-07T00:20:56.806Z,101108.38
2022-08-07T00:23:28.278Z,101100.22
2022-08-07T00:26:01.609Z,101103.69
2022-08-07T00:28:34.387Z,101105.72
2022-08-07T00:31:04.313Z,101099.97
2022-08-07T00:33:33.808Z,101101.78
2022-08-07T00:36:03.621Z,101099.72
2022-08-07T00:38:33.267Z,101094.16
2022-08-07T00:41:02.106Z,101100.56
2022-08-07T00:43:59.033Z,101098.19
2022-08-07T00:46:17.929Z,101097.00
2022-08-07T00:48:45.743Z,101097.34
2022-08-07T00:51:19.237Z,101094.25
2022-08-07T00:53:54.998Z,101096.94
2022-08-07T00:56:30.059Z,101092.56
2022-08-07T00:58:58.651Z,101098.25
2022-08-07T01:01:26.784Z,101094.72
2022-08-07T01:04:00.077Z,101094.19
2022-08-07T01:06:30.043Z,101097.09
2022-08-07T01:09:00.972Z,101098.13
2022-08-07T01:12:10.140Z,101097.09
2022-08-07T01:14:17.448Z,101094.97
2022-08-07T01:16:49.752Z,101100.13
2022-08-07T01:19:19.918Z,101099.00
2022-08-07T01:21:53.342Z,101104.53
2022-08-07T01:24:23.571Z,101100.28
2022-08-07T01:26:52.716Z,101100.53
2022-08-07T01:29:23.492Z,101096.69
2022-08-07T01:31:59.678Z,101100.22
2022-08-07T01:34:27.958Z,101100.06
2022-08-07T01:37:00.300Z,101099.66
2022-08-07T01:39:41.135Z,101088.66
2022-08-07T01:42:39.874Z,101097.44
2022-08-07T01:45:04.880Z,101102.81
2022-08-07T01:48:18.154Z,101096.88
2022-08-07T01:50:28.959Z,101099.03
2022-08-07T01:53:00.345Z,101104.25
2022-08-07T01:55:35.321Z,101091.41
2022-08-07T01:58:28.887Z,101095.25
2022-08-07T02:01:09.767Z,101086.03
2022-08-07T02:03:50.235Z,101088.47
2022-08-07T02:06:31.986Z,101085.94
2022-08-07T02:09:05.142Z,101088.22
2022-08-07T02:12:04.982Z,101092.75
2022-08-07T02:14:35.951Z,101081.69
2022-08-07T02:17:09.917Z,101082.81
2022-08-07T02:20:07.359Z,101078.47
2022-08-07T02:22:30.406Z,101079.75
2022-08-07T02:25:00.806Z,101069.41
2022-08-07T02:27:34.645Z,101070.88
2022-08-07T02:30:07.465Z,101072.88
2022-08-07T02:32:39.599Z,101063.09
2022-08-07T02:36:30.136Z,101063.84
2022-08-07T02:38:16.686Z,101063.13
2022-08-07T02:40:47.113Z,101057.91
2022-08-07T02:43:16.843Z,101059.75
2022-08-07T02:46:00.658Z,101058.91
2022-08-07T02:48:30.268Z,101060.19
2022-08-07T02:51:01.778Z,101050.13
2022-08-07T02:53:38.695Z,101054.69
2022-08-07T02:56:21.128Z,101050.59
2022-08-07T02:58:51.490Z,101055.56
2022-08-07T03:01:35.471Z,101046.94
2022-08-07T03:04:07.212Z,101055.47
2022-08-07T03:06:36.404Z,101053.00
2022-08-07T03:09:11.500Z,101052.75
2022-08-07T03:11:52.287Z,101053.78
2022-08-07T03:14:27.874Z,101058.97
2022-08-07T03:16:56.788Z,101056.88
2022-08-07T03:19:29.041Z,101051.63
2022-08-07T03:22:07.073Z,101046.84
2022-08-07T03:24:36.751Z,101046.16
2022-08-07T03:27:09.231Z,101040.78
2022-08-07T03:29:44.587Z,101038.78
2022-08-07T03:32:20.106Z,101047.31
2022-08-07T03:35:00.936Z,101040.09
2022-08-07T03:37:46.503Z,101037.84
2022-08-07T03:40:22.345Z,101041.25
2022-08-07T03:42:52.472Z,101040.88
2022-08-07T03:45:31.117Z,101037.88
2022-08-07T03:48:00.117Z,101043.56
2022-08-07T03:50:29.123Z,101049.63
2022-08-07T03:52:58.927Z,101053.16
2022-08-07T03:55:53.414Z,101051.06
2022-08-07T03:59:07.063Z,101054.72
2022-08-07T04:01:07.627Z,101058.53
2022-08-07T04:03:53.845Z,101056.88
2022-08-07T04:06:37.258Z,101054.56
2022-08-07T04:09:08.331Z,101050.34
2022-08-07T04:12:25.933Z,101051.19
2022-08-07T04:14:37.311Z,101062.94
2022-08-07T04:17:19.868Z,101061.09
2022-08-07T04:19:52.861Z,101056.16
2022-08-07T04:22:29.191Z,101051.63
2022-08-07T04:24:58.546Z,101051.38
2022-08-07T04:27:26.875Z,101058.72
2022-08-07T04:30:01.281Z,101055.47
2022-08-07T04:32:34.652Z,101067.63
2022-08-07T04:35:05.730Z,101058.41
2022-08-07T04:37:52.929Z,101059.81
2022-08-07T04:40:29.830Z,101063.38
2022-08-07T04:43:02.111Z,101072.69
2022-08-07T04:45:52.085Z,101072.44
2022-08-07T04:48:39.238Z,101073.13
2022-08-07T04:51:17.141Z,101073.84
2022-08-07T04:54:01.420Z,101073.84
2022-08-07T04:58:23.768Z,101080.63
2022-08-07T05:00:10.746Z,101082.59
2022-08-07T05:02:30.567Z,101090.78
2022-08-07T05:05:11.426Z,101092.91
2022-08-07T05:07:51.754Z,101086.13
2022-08-07T05:10:29.490Z,101090.94
2022-08-07T05:13:09.841Z,101081.72
2022-08-07T05:15:53.732Z,101081.88
2022-08-07T05:18:29.660Z,101090.06
2022-08-07T05:21:00.262Z,101092.88
2022-08-07T05:23:35.494Z,101092.16
2022-08-07T05:26:11.859Z,101096.94
2022-08-07T05:28:50.007Z,101095.53
2022-08-07T05:31:21.587Z,101107.84
2022-08-07T05:34:04.390Z,101109.94
2022-08-07T05:36:35.812Z,101107.50
2022-08-07T05:39:16.004Z,101112.97
2022-08-07T05:42:02.473Z,101112.09
2022-08-07T05:44:34.795Z,101115.88
2022-08-07T05:47:18.100Z,101120.84
2022-08-07T05:49:50.347Z,101121.38
2022-08-07T05:52:20.112Z,101125.16
2022-08-07T05:54:55.544Z,101121.88
2022-08-07T05:57:26.693Z,101121.13
2022-08-07T06:00:00.154Z,101125.91
2022-08-07T06:02:32.405Z,101132.06
2022-08-07T06:05:06.281Z,101127.78
2022-08-07T06:08:13.362Z,101126.03
2022-08-07T06:10:24.928Z,101133.63
2022-08-07T06:12:52.942Z,101125.06
2022-08-07T06:15:39.285Z,101129.38
2022-08-07T06:18:13.956Z,101125.75
2022-08-07T06:20:49.977Z,101123.13
2022-08-07T06:24:38.657Z,101120.69
2022-08-07T06:26:21.729Z,101120.78
2022-08-07T06:28:59.563Z,101120.16
2022-08-07T06:31:46.869Z,101119.53
2022-08-07T06:34:20.411Z,101118.53
2022-08-07T06:36:52.028Z,101117.59
2022-08-07T06:40:17.801Z,101118.47
2022-08-07T06:42:10.831Z,101119.59
2022-08-07T06:44:39.798Z,101115.56
2022-08-07T06:47:12.675Z,101117.59
2022-08-07T06:49:52.261Z,101116.81
2022-08-07T06:52:35.633Z,101113.09
2022-08-07T06:55:32.014Z,101114.84
2022-08-07T06:57:59.446Z,101116.56
2022-08-07T07:00:28.631Z,101113.22
2022-08-07T07:03:01.164Z,101110.16
2022-08-07T07:06:02.762Z,101115.94
2022-08-07T07:08:28.589Z,101119.06
2022-08-07T07:10:57.846Z,101120.06
2022-08-07T07:13:43.653Z,101119.09
2022-08-07T07:16:27.539Z,101110.47
2022-08-07T07:19:04.189Z,101106.25
2022-08-07T07:22:05.172Z,101116.06
2022-08-07T07:24:58.407Z,101110.50
2022-08-07T07:27:55.747Z,101106.06
2022-08-07T07:30:26.306Z,101103.56
2022-08-07T07:33:02.673Z,101106.75
2022-08-07T07:35:33.338Z,101097.28
2022-08-07T07:38:04.972Z,101099.28
2022-08-07T07:40:36.840Z,101104.84
2022-08-07T07:43:15.328Z,101102.28
2022-08-07T07:46:36.990Z,101100.72
2022-08-07T07:48:38.489Z,101101.69
2022-08-07T07:51:08.544Z,101100.47
2022-08-07T07:53:50.355Z,101093.47
2022-08-07T07:56:30.306Z,101093.44
2022-08-07T07:59:01.633Z,101090.31
2022-08-07T08:02:03.110Z,101096.09
2022-08-07T08:04:25.556Z,101092.53
2022-08-07T08:06:55.245Z,101083.94
2022-08-07T08:09:29.559Z,101083.84
2022-08-07T08:12:05.010Z,101086.31
2022-08-07T08:14:34.334Z,101080.00
2022-08-07T08:17:32.295Z,101080.72
2022-08-07T08:20:18.853Z,101077.47
2022-08-07T08:23:08.309Z,101079.91
2022-08-07T08:25:56.915Z,101076.66
2022-08-07T08:28:37.579Z,101083.78
2022-08-07T08:31:13.816Z,101079.78
2022-08-07T08:33:48.973Z,101072.63
2022-08-07T08:36:25.749Z,101069.25
2022-08-07T08:39:02.078Z,101074.84
2022-08-07T08:41:58.408Z,101075.63
2022-08-07T08:44:41.149Z,101075.19
2022-08-07T08:47:22.692Z,101078.63
2022-08-07T08:50:05.008Z,101061.50
2022-08-07T08:52:40.766Z,101070.38
2022-08-07T08:55:55.189Z,101067.31
2022-08-07T08:58:28.818Z,101073.25
2022-08-07T09:01:15.752Z,101063.84
2022-08-07T09:03:55.210Z,101070.84
2022-08-07T09:06:48.069Z,101058.28
2022-08-07T09:09:36.696Z,101056.66
2022-08-07T09:12:30.522Z,101058.41
2022-08-07T09:16:25.297Z,101049.59
2022-08-07T09:18:27.928Z,101050.00
2022-08-07T09:21:06.884Z,101049.16
2022-08-07T09:24:33.138Z,101047.47
2022-08-07T09:26:51.943Z,101045.38
2022-08-07T09:30:04.096Z,101043.25
2022-08-07T09:32:32.535Z,101046.44
2022-08-07T09:36:02.768Z,101045.16
2022-08-07T09:38:10.953Z,101042.75
2022-08-07T09:40:52.152Z,101043.72
2022-08-07T09:43:40.143Z,101032.16
2022-08-07T09:47:49.462Z,101030.84
2022-08-07T09:50:02.567Z,101021.88
2022-08-07T09:52:34.094Z,101023.50
2022-08-07T09:55:29.840Z,101010.97
2022-08-07T09:58:32.409Z,101012.41
2022-08-07T10:01:51.760Z,101007.81
2022-08-07T10:04:28.237Z,101001.69
2022-08-07T10:07:25.751Z,100997.47
2022-08-07T10:10:11.977Z,100994.81
2022-08-07T10:13:29.676Z,100991.81
2022-08-07T10:16:16.334Z,100984.72
2022-08-07T10:19:15.548Z,100982.56
2022-08-07T10:22:15.765Z,100980.53
2022-08-07T10:24:52.088Z,100971.59
2022-08-07T10:27:46.227Z,100971.41
2022-08-07T10:30:19.044Z,100962.59
2022-08-07T10:33:08.408Z,100965.63
2022-08-07T10:35:56.961Z,100959.03
2022-08-07T10:38:48.385Z,100952.47
2022-08-07T10:41:47.193Z,100955.94
2022-08-07T10:44:37.420Z,100949.44
2022-08-07T10:47:26.975Z,100948.19
2022-08-07T10:50:15.220Z,100953.72
2022-08-07T10:52:53.362Z,100951.59
2022-08-07T10:55:38.711Z,100941.56
2022-08-07T10:58:18.848Z,100939.06
2022-08-07T11:01:22.334Z,100936.53
2022-08-07T11:04:11.046Z,100931.66
2022-08-07T11:06:55.013Z,100922.88
2022-08-07T11:10:10.389Z,100924.63
2022-08-07T11:12:31.455Z,100920.38
2022-08-07T11:15:09.649Z,100917.03
2022-08-07T11:17:53.911Z,100915.34
2022-08-07T11:20:25.665Z,100912.22
2022-08-07T11:23:02.654Z,100906.16
2022-08-07T11:25:47.963Z,100913.03
2022-08-07T11:28:24.667Z,100900.22
2022-08-07T11:30:59.075Z,100898.78
2022-08-07T11:33:54.079Z,100900.72
2022-08-07T11:36:44.795Z,100880.91
2022-08-07T11:39:59.333Z,100887.06
2022-08-07T11:42:29.667Z,100863.47
2022-08-07T11:45:01.036Z,100886.66
2022-08-07T11:47:56.729Z,100880.16
2022-08-07T11:50:44.297Z,100874.47
2022-08-07T11:53:28.416Z,100866.97
2022-08-07T11:56:26.905Z,100865.56
2022-08-07T12:00:08.236Z,100859.00
2022-08-07T12:02:02.017Z,100865.22
2022-08-07T12:04:57.950Z,100859.00
2022-08-07T12:07:39.098Z,100855.03
2022-08-07T12:10:14.744Z,100854.59
2022-08-07T12:12:49.221Z,100846.09
2022-08-07T12:15:35.940Z,100839.44
2022-08-07T12:18:22.373Z,100852.84
2022-08-07T12:21:08.844Z,100844.84
2022-08-07T12:24:07.030Z,100845.41
2022-08-07T12:26:46.825Z,100845.50
2022-08-07T12:29:38.491Z,100844.16
2022-08-07T12:32:18.234Z,100847.41
2022-08-07T12:34:53.456Z,100841.06
2022-08-07T12:37:28.163Z,100842.88
2022-08-07T12:40:46.932Z,100846.50
2022-08-07T12:43:11.766Z,100828.06
2022-08-07T12:46:26.003Z,100828.13
2022-08-07T12:49:10.125Z,100822.28
2022-08-07T12:52:12.002Z,100819.53
2022-08-07T12:54:54.750Z,100820.66
2022-08-07T12:57:39.262Z,100819.31
2022-08-07T13:00:31.275Z,100821.75
2022-08-07T13:04:02.048Z,100828.78
2022-08-07T13:07:02.833Z,100825.91
2022-08-07T13:10:20.027Z,100817.50
2022-08-07T13:12:51.642Z,100809.53
2022-08-07T13:15:31.679Z,100815.72
2022-08-07T13:18:25.800Z,100814.38
2022-08-07T13:21:03.627Z,100804.94
2022-08-07T13:24:01.873Z,100802.22
2022-08-07T13:26:35.187Z,100794.34
2022-08-07T13:29:12.856Z,100803.13
2022-08-07T13:31:57.357Z,100794.31
2022-08-07T13:34:36.614Z,100792.66
2022-08-07T13:37:20.800Z,100793.59
2022-08-07T13:40:36.487Z,100795.16
2022-08-07T13:42:51.388Z,100788.50
2022-08-07T13:46:11.800Z,100796.06
2022-08-07T13:48:27.540Z,100787.56
2022-08-07T13:51:02.662Z,100777.69
2022-08-07T13:54:00.688Z,100785.94
2022-08-07T13:56:36.037Z,100786.22
2022-08-07T13:59:13.592Z,100789.16
2022-08-07T14:02:03.655Z,100788.69
2022-08-07T14:04:36.021Z,100778.91
2022-08-07T14:07:09.388Z,100778.66
2022-08-07T14:10:12.633Z,100773.31
2022-08-07T14:12:36.190Z,100768.59
2022-08-07T14:15:18.606Z,100769.25
2022-08-07T14:18:15.963Z,100766.66
2022-08-07T14:20:39.997Z,100760.28
2022-08-07T14:23:12.433Z,100760.38
2022-08-07T14:25:45.833Z,100753.84
2022-08-07T14:28:16.398Z,100757.31
2022-08-07T14:30:47.636Z,100764.63
2022-08-07T14:33:22.326Z,100755.34
2022-08-07T14:35:55.898Z,100759.44
2022-08-07T14:38:30.905Z,100762.03
2022-08-07T14:41:00.814Z,100752.72
2022-08-07T14:43:58.340Z,100757.91
2022-08-07T14:46:31.199Z,100747.63
2022-08-07T14:49:17.355Z,100749.09
2022-08-07T14:52:05.032Z,100747.97
2022-08-07T14:54:35.860Z,100744.19
2022-08-07T14:57:14.891Z,100738.63
2022-08-07T15:00:04.674Z,100736.50
2022-08-07T15:02:37.148Z,100734.41
2022-08-07T15:05:19.586Z,100724.75
2022-08-07T15:07:52.278Z,100728.81
2022-08-07T15:10:26.721Z,100730.38
2022-08-07T15:12:59.064Z,100733.94
2022-08-07T15:15:30.726Z,100722.50
2022-08-07T15:18:02.804Z,100720.34
2022-08-07T15:20:54.583Z,100715.59
2022-08-07T15:25:04.067Z,100720.28
2022-08-07T15:26:21.290Z,100715.78
2022-08-07T15:28:56.653Z,100725.22
2022-08-07T15:31:58.132Z,100715.88
2022-08-07T15:34:26.124Z,100720.31
2022-08-07T15:39:56.853Z,100710.38
2022-08-07T15:45:56.804Z,100704.22
2022-08-07T15:48:29.923Z,100704.72
2022-08-07T15:51:08.774Z,100706.75
2022-08-07T15:53:52.871Z,100700.31
2022-08-07T15:56:24.158Z,100699.25
2022-08-07T15:58:53.627Z,100696.38
2022-08-07T16:01:23.788Z,100700.81
2022-08-07T16:04:14.275Z,100701.06
2022-08-07T16:06:44.157Z,100695.84
2022-08-07T16:09:22.629Z,100695.50
2022-08-07T16:12:04.055Z,100699.06
2022-08-07T16:14:36.247Z,100687.13
2022-08-07T16:17:14.888Z,100687.84
2022-08-07T16:19:59.759Z,100686.16
2022-08-07T16:22:54.328Z,100684.75
2022-08-07T16:25:52.541Z,100687.97
2022-08-07T16:30:08.532Z,100681.66
2022-08-07T16:31:57.243Z,100682.25
2022-08-07T16:34:28.365Z,100679.47
2022-08-07T16:38:04.607Z,100683.53
2022-08-07T16:40:28.663Z,100684.03
2022-08-07T16:43:05.143Z,100676.03
2022-08-07T16:46:34.752Z,100680.34
2022-08-07T16:48:53.847Z,100682.72
2022-08-07T16:51:54.129Z,100687.22
2022-08-07T16:54:54.429Z,100684.59
2022-08-07T16:58:02.701Z,100685.94
2022-08-07T17:00:29.936Z,100681.72
2022-08-07T17:03:17.211Z,100672.81
2022-08-07T17:06:22.448Z,100686.34
2022-08-07T17:08:57.222Z,100680.28
2022-08-07T17:11:27.759Z,100674.69
2022-08-07T17:14:22.269Z,100673.44
2022-08-07T17:16:55.936Z,100676.66
2022-08-07T17:20:01.979Z,100682.59
2022-08-07T17:22:36.229Z,100679.22
2022-08-07T17:25:10.972Z,100674.22
2022-08-07T17:27:51.050Z,100680.53
2022-08-07T17:30:26.828Z,100691.34
2022-08-07T17:33:05.061Z,100690.59
2022-08-07T17:35:56.246Z,100689.16
2022-08-07T17:38:33.671Z,100695.56
2022-08-07T17:42:00.685Z,100684.31
2022-08-07T17:44:02.954Z,100692.81
2022-08-07T17:46:40.283Z,100689.72
2022-08-07T17:49:10.466Z,100691.69
2022-08-07T17:52:00.895Z,100689.41
2022-08-07T17:54:53.186Z,100700.31
2022-08-07T17:57:25.189Z,100698.91
2022-08-07T18:00:32.728Z,100696.88
2022-08-07T18:03:09.387Z,100698.41
2022-08-07T18:06:03.387Z,100698.66
2022-08-07T18:08:32.554Z,100707.16
2022-08-07T18:12:06.809Z,100711.63
2022-08-07T18:14:01.529Z,100710.84
2022-08-07T18:16:32.979Z,100717.44
2022-08-07T18:21:08.187Z,100709.31
2022-08-07T18:22:06.300Z,100718.00
2022-08-07T18:24:43.021Z,100717.00
2022-08-07T18:27:17.379Z,100719.78
2022-08-07T18:30:08.294Z,100715.44
2022-08-07T18:33:00.257Z,100719.28
2022-08-07T18:35:51.844Z,100726.00
2022-08-07T18:38:58.567Z,100726.06
2022-08-07T18:41:20.601Z,100720.03
2022-08-07T18:43:57.588Z,100733.47
2022-08-07T18:46:30.267Z,100733.94
2022-08-07T18:50:30.663Z,100728.75
2022-08-07T18:52:35.590Z,100724.59
2022-08-07T18:54:50.984Z,100735.53
2022-08-07T18:57:31.048Z,100735.75
2022-08-07T19:00:34.496Z,100738.72
2022-08-07T19:02:59.868Z,100740.25
2022-08-07T19:06:03.058Z,100745.06
2022-08-07T19:08:19.971Z,100752.44
2022-08-07T19:10:51.686Z,100751.59
2022-08-07T19:13:41.982Z,100755.19
2022-08-07T19:17:00.719Z,100755.84
2022-08-07T19:19:13.148Z,100769.22
2022-08-07T19:21:53.472Z,100760.41
2022-08-07T19:24:30.770Z,100772.38
2022-08-07T19:28:29.783Z,100774.88
2022-08-07T19:30:55.743Z,100778.84
2022-08-07T19:32:45.452Z,100784.06
2022-08-07T19:35:17.831Z,100787.00
2022-08-07T19:37:57.175Z,100792.63
2022-08-07T19:40:31.325Z,100797.78
2022-08-07T19:43:01.053Z,100799.06
2022-08-07T19:46:07.689Z,100798.38
2022-08-07T19:48:24.438Z,100804.84
2022-08-07T19:50:53.577Z,100810.44
2022-08-07T19:54:33.483Z,100808.97
2022-08-07T19:58:01.693Z,100813.13
2022-08-07T19:59:02.568Z,100805.75
2022-08-07T20:01:56.089Z,100808.69
2022-08-07T20:04:31.432Z,100809.69
2022-08-07T20:07:09.258Z,100820.53
2022-08-07T20:10:37.332Z,100818.41
2022-08-07T20:12:34.422Z,100824.91
2022-08-07T20:15:04.552Z,100818.53
2022-08-07T20:17:40.507Z,100824.75
2022-08-07T20:20:11.977Z,100828.91
2022-08-07T20:22:45.221Z,100823.03
2022-08-07T20:25:19.723Z,100828.63
2022-08-07T20:27:54.303Z,100830.06
2022-08-07T20:30:30.902Z,100835.69
2022-08-07T20:33:00.875Z,100837.06
2022-08-07T20:35:34.237Z,100836.16
2022-08-07T20:38:06.274Z,100837.34
2022-08-07T20:40:41.303Z,100835.19
2022-08-07T20:43:19.260Z,100832.25
2022-08-07T20:46:27.148Z,100824.66
2022-08-07T20:48:42.230Z,100827.94
2022-08-07T20:51:30.196Z,100827.88
2022-08-07T20:54:08.711Z,100824.69
2022-08-07T20:56:48.259Z,100828.00
2022-08-07T21:00:04.839Z,100828.19
2022-08-07T21:02:14.577Z,100823.53
2022-08-07T21:04:55.897Z,100820.28
2022-08-07T21:07:25.949Z,100825.06
2022-08-07T21:09:59.105Z,100816.41
2022-08-07T21:12:30.957Z,100821.72
2022-08-07T21:15:02.654Z,100819.41
2022-08-07T21:18:02.996Z,100813.88
2022-08-07T21:20:29.799Z,100817.53
2022-08-07T21:22:59.298Z,100816.41
2022-08-07T21:25:43.552Z,100818.84
2022-08-07T21:28:13.373Z,100818.47
2022-08-07T21:30:46.562Z,100809.44
2022-08-07T21:33:17.719Z,100811.19
2022-08-07T21:36:05.134Z,100811.56
2022-08-07T21:38:46.885Z,100811.09
2022-08-07T21:41:20.598Z,100808.50
2022-08-07T21:43:56.068Z,100809.59
2022-08-07T21:46:31.884Z,100807.16
2022-08-07T21:49:04.768Z,100811.09
2022-08-07T21:51:50.977Z,100812.84
2022-08-07T21:54:26.625Z,100817.09
2022-08-07T21:57:05.254Z,100808.50
2022-08-07T22:00:02.832Z,100807.81
2022-08-07T22:02:27.599Z,100808.84
2022-08-07T22:04:59.923Z,100809.22
2022-08-07T22:07:31.399Z,100805.19
2022-08-07T22:10:04.118Z,100806.06
2022-08-07T22:12:35.990Z,100797.28
2022-08-07T22:16:42.550Z,100800.16
2022-08-07T22:17:57.779Z,100812.88
2022-08-07T22:20:28.460Z,100813.88
2022-08-07T22:23:01.610Z,100819.28
2022-08-07T22:25:36.515Z,100830.50
2022-08-07T22:28:30.262Z,100817.13
2022-08-07T22:30:58.506Z,100815.81
2022-08-07T22:33:52.533Z,100822.25
2022-08-07T22:36:26.404Z,100817.22
2022-08-07T22:38:59.886Z,100821.75
2022-08-07T22:42:03.681Z,100828.56
2022-08-07T22:44:20.183Z,100827.06
2022-08-07T22:47:03.310Z,100829.13
2022-08-07T22:49:42.885Z,100832.88
2022-08-07T22:52:39.971Z,100833.22
2022-08-07T22:55:30.239Z,100843.00
2022-08-07T22:58:18.973Z,100826.97
2022-08-07T23:00:54.852Z,100827.78
2022-08-07T23:03:58.456Z,100825.81
2022-08-07T23:06:35.812Z,100823.28
2022-08-07T23:10:01.049Z,100827.03
2022-08-07T23:12:10.204Z,100824.34
2022-08-07T23:14:48.335Z,100826.88
2022-08-07T23:17:26.939Z,100832.19
2022-08-07T23:20:51.437Z,100827.31
2022-08-07T23:24:05.013Z,100827.00
2022-08-07T23:26:23.382Z,100822.78
2022-08-07T23:29:17.150Z,100835.00
2022-08-07T23:34:23.019Z,100832.75
2022-08-07T23:35:08.601Z,100840.03
2022-08-07T23:38:01.320Z,100832.97
2022-08-07T23:40:35.423Z,100835.66
2022-08-07T23:43:21.397Z,100837.34
2022-08-07T23:46:03.100Z,100835.84
2022-08-07T23:48:43.323Z,100833.84
2022-08-07T23:53:05.140Z,100841.81
2022-08-07T23:54:08.323Z,100843.38
2022-08-07T23:56:54.000Z,100838.16
